sensor_id;sensor_type;location;lat;lon;timestamp;P1;durP1;ratioP1;P2;durP2;ratioP2
7201;SDS011;3642;52.506;13.304;2022-07-22T00:00:27;4.88;;;4.38;;
7201;SDS011;3642;52.506;13.304;2022-07-22T00:02:55;5.10;;;4.50;;
7201;SDS011;3642;52.506;13.304;2022-07-22T00:05:23;5.25;;;4.75;;
7201;SDS011;3642;52.506;13.304;2022-07-22T00:07:52;5.18;;;4.05;;
7201;SDS011;3642;52.506;13.304;2022-07-22T00:10:21;6.13;;;4.50;;
7201;SDS011;3642;52.506;13.304;2022-07-22T00:12:49;6.20;;;4.40;;
7201;SDS011;3642;52.506;13.304;2022-07-22T00:15:17;5.65;;;4.38;;
7201;SDS011;3642;52.506;13.304;2022-07-22T00:17:45;4.97;;;4.40;;
7201;SDS011;3642;52.506;13.304;2022-07-22T00:20:13;5.20;;;4.05;;
7201;SDS011;3642;52.506;13.304;2022-07-22T00:22:41;5.32;;;4.50;;
7201;SDS011;3642;52.506;13.304;2022-07-22T00:25:09;5.30;;;4.47;;
7201;SDS011;3642;52.506;13.304;2022-07-22T00:27:39;6.10;;;4.45;;
7201;SDS011;3642;52.506;13.304;2022-07-22T00:30:07;5.75;;;4.70;;
7201;SDS011;3642;52.506;13.304;2022-07-22T00:32:37;5.20;;;4.70;;
7201;SDS011;3642;52.506;13.304;2022-07-22T00:35:06;5.40;;;4.20;;
7201;SDS011;3642;52.506;13.304;2022-07-22T00:37:35;4.25;;;3.60;;
7201;SDS011;3642;52.506;13.304;2022-07-22T00:40:04;6.78;;;4.97;;
7201;SDS011;3642;52.506;13.304;2022-07-22T00:42:33;4.57;;;4.00;;
7201;SDS011;3642;52.506;13.304;2022-07-22T00:45:03;5.80;;;4.68;;
7201;SDS011;3642;52.506;13.304;2022-07-22T00:47:33;5.07;;;4.00;;
7201;SDS011;3642;52.506;13.304;2022-07-22T00:50:02;4.40;;;4.00;;
7201;SDS011;3642;52.506;13.304;2022-07-22T00:52:32;4.75;;;3.97;;
7201;SDS011;3642;52.506;13.304;2022-07-22T00:55:02;5.60;;;4.13;;
7201;SDS011;3642;52.506;13.304;2022-07-22T00:57:31;4.53;;;4.00;;
7201;SDS011;3642;52.506;13.304;2022-07-22T00:59:59;4.88;;;4.20;;
7201;SDS011;3642;52.506;13.304;2022-07-22T01:02:29;4.22;;;3.80;;
7201;SDS011;3642;52.506;13.304;2022-07-22T01:04:57;4.13;;;3.67;;
7201;SDS011;3642;52.506;13.304;2022-07-22T01:07:25;4.40;;;3.65;;
7201;SDS011;3642;52.506;13.304;2022-07-22T01:09:54;4.47;;;3.97;;
7201;SDS011;3642;52.506;13.304;2022-07-22T01:12:22;3.75;;;3.10;;
7201;SDS011;3642;52.506;13.304;2022-07-22T01:14:50;3.47;;;3.17;;
7201;SDS011;3642;52.506;13.304;2022-07-22T01:17:18;3.63;;;3.33;;
7201;SDS011;3642;52.506;13.304;2022-07-22T01:19:48;4.20;;;3.60;;
7201;SDS011;3642;52.506;13.304;2022-07-22T01:22:18;3.85;;;3.10;;
7201;SDS011;3642;52.506;13.304;2022-07-22T01:24:46;3.50;;;3.20;;
7201;SDS011;3642;52.506;13.304;2022-07-22T01:27:15;3.28;;;2.97;;
7201;SDS011;3642;52.506;13.304;2022-07-22T01:29:43;5.28;;;3.20;;
7201;SDS011;3642;52.506;13.304;2022-07-22T01:32:11;3.60;;;3.17;;
7201;SDS011;3642;52.506;13.304;2022-07-22T01:34:39;3.40;;;3.10;;
7201;SDS011;3642;52.506;13.304;2022-07-22T01:37:09;3.85;;;2.88;;
7201;SDS011;3642;52.506;13.304;2022-07-22T01:39:40;3.92;;;3.10;;
7201;SDS011;3642;52.506;13.304;2022-07-22T01:42:08;3.47;;;3.17;;
7201;SDS011;3642;52.506;13.304;2022-07-22T01:44:36;4.10;;;3.17;;
7201;SDS011;3642;52.506;13.304;2022-07-22T01:47:04;3.65;;;3.22;;
7201;SDS011;3642;52.506;13.304;2022-07-22T01:49:32;4.82;;;3.22;;
7201;SDS011;3642;52.506;13.304;2022-07-22T01:52:01;4.68;;;3.28;;
7201;SDS011;3642;52.506;13.304;2022-07-22T01:54:32;3.30;;;3.00;;
7201;SDS011;3642;52.506;13.304;2022-07-22T01:57:01;3.03;;;2.72;;
7201;SDS011;3642;52.506;13.304;2022-07-22T01:59:30;3.38;;;3.08;;
7201;SDS011;3642;52.506;13.304;2022-07-22T02:01:58;3.67;;;3.38;;
7201;SDS011;3642;52.506;13.304;2022-07-22T02:04:27;5.82;;;4.35;;
7201;SDS011;3642;52.506;13.304;2022-07-22T02:06:55;5.85;;;5.13;;
7201;SDS011;3642;52.506;13.304;2022-07-22T02:09:23;4.25;;;3.85;;
7201;SDS011;3642;52.506;13.304;2022-07-22T02:11:51;4.63;;;3.40;;
7201;SDS011;3642;52.506;13.304;2022-07-22T02:14:20;3.53;;;3.22;;
7201;SDS011;3642;52.506;13.304;2022-07-22T02:16:48;4.47;;;3.25;;
7201;SDS011;3642;52.506;13.304;2022-07-22T02:19:17;3.58;;;3.10;;
7201;SDS011;3642;52.506;13.304;2022-07-22T02:21:45;3.97;;;3.55;;
7201;SDS011;3642;52.506;13.304;2022-07-22T02:24:13;3.42;;;3.13;;
7201;SDS011;3642;52.506;13.304;2022-07-22T02:26:41;4.10;;;3.10;;
7201;SDS011;3642;52.506;13.304;2022-07-22T02:29:09;5.18;;;3.50;;
7201;SDS011;3642;52.506;13.304;2022-07-22T02:31:38;3.88;;;3.47;;
7201;SDS011;3642;52.506;13.304;2022-07-22T02:34:07;5.20;;;3.28;;
7201;SDS011;3642;52.506;13.304;2022-07-22T02:36:35;3.75;;;3.40;;
7201;SDS011;3642;52.506;13.304;2022-07-22T02:39:03;4.00;;;3.60;;
7201;SDS011;3642;52.506;13.304;2022-07-22T02:41:32;4.00;;;3.60;;
7201;SDS011;3642;52.506;13.304;2022-07-22T02:44:00;3.75;;;3.10;;
7201;SDS011;3642;52.506;13.304;2022-07-22T02:46:28;3.40;;;3.10;;
7201;SDS011;3642;52.506;13.304;2022-07-22T02:48:58;3.30;;;2.95;;
7201;SDS011;3642;52.506;13.304;2022-07-22T02:51:26;3.85;;;3.42;;
7201;SDS011;3642;52.506;13.304;2022-07-22T02:53:54;4.10;;;3.38;;
7201;SDS011;3642;52.506;13.304;2022-07-22T02:56:22;4.55;;;3.33;;
7201;SDS011;3642;52.506;13.304;2022-07-22T02:58:50;3.67;;;3.38;;
7201;SDS011;3642;52.506;13.304;2022-07-22T03:01:19;4.57;;;3.55;;
7201;SDS011;3642;52.506;13.304;2022-07-22T03:03:48;3.65;;;3.30;;
7201;SDS011;3642;52.506;13.304;2022-07-22T03:06:17;3.67;;;3.38;;
7201;SDS011;3642;52.506;13.304;2022-07-22T03:08:47;4.10;;;3.63;;
7201;SDS011;3642;52.506;13.304;2022-07-22T03:11:15;4.30;;;3.90;;
7201;SDS011;3642;52.506;13.304;2022-07-22T03:13:43;6.63;;;4.00;;
7201;SDS011;3642;52.506;13.304;2022-07-22T03:16:11;5.22;;;3.92;;
7201;SDS011;3642;52.506;13.304;2022-07-22T03:18:40;5.07;;;3.72;;
7201;SDS011;3642;52.506;13.304;2022-07-22T03:21:08;4.30;;;3.83;;
7201;SDS011;3642;52.506;13.304;2022-07-22T03:23:37;5.35;;;4.03;;
7201;SDS011;3642;52.506;13.304;2022-07-22T03:26:05;4.88;;;4.30;;
7201;SDS011;3642;52.506;13.304;2022-07-22T03:28:34;3.90;;;3.53;;
7201;SDS011;3642;52.506;13.304;2022-07-22T03:31:02;4.53;;;4.13;;
7201;SDS011;3642;52.506;13.304;2022-07-22T03:33:30;4.05;;;3.58;;
7201;SDS011;3642;52.506;13.304;2022-07-22T03:35:58;5.30;;;4.63;;
7201;SDS011;3642;52.506;13.304;2022-07-22T03:38:26;5.57;;;4.70;;
7201;SDS011;3642;52.506;13.304;2022-07-22T03:40:56;4.95;;;4.28;;
7201;SDS011;3642;52.506;13.304;2022-07-22T03:43:24;5.68;;;4.25;;
7201;SDS011;3642;52.506;13.304;2022-07-22T03:45:52;5.40;;;4.65;;
7201;SDS011;3642;52.506;13.304;2022-07-22T03:48:20;5.07;;;4.43;;
7201;SDS011;3642;52.506;13.304;2022-07-22T03:50:48;5.70;;;4.40;;
7201;SDS011;3642;52.506;13.304;2022-07-22T03:53:17;5.50;;;3.90;;
7201;SDS011;3642;52.506;13.304;2022-07-22T03:55:46;4.72;;;4.22;;
7201;SDS011;3642;52.506;13.304;2022-07-22T03:58:16;8.50;;;4.88;;
7201;SDS011;3642;52.506;13.304;2022-07-22T04:00:45;5.85;;;4.32;;
7201;SDS011;3642;52.506;13.304;2022-07-22T04:03:13;4.80;;;4.22;;
7201;SDS011;3642;52.506;13.304;2022-07-22T04:05:41;4.47;;;3.88;;
7201;SDS011;3642;52.506;13.304;2022-07-22T04:08:09;5.32;;;4.82;;
7201;SDS011;3642;52.506;13.304;2022-07-22T04:10:37;4.43;;;3.92;;
7201;SDS011;3642;52.506;13.304;2022-07-22T04:13:05;6.13;;;4.45;;
7201;SDS011;3642;52.506;13.304;2022-07-22T04:15:34;5.57;;;4.10;;
7201;SDS011;3642;52.506;13.304;2022-07-22T04:18:03;5.20;;;4.65;;
7201;SDS011;3642;52.506;13.304;2022-07-22T04:20:31;5.00;;;4.22;;
7201;SDS011;3642;52.506;13.304;2022-07-22T04:22:59;6.13;;;4.72;;
7201;SDS011;3642;52.506;13.304;2022-07-22T04:25:27;5.18;;;4.45;;
7201;SDS011;3642;52.506;13.304;2022-07-22T04:27:55;5.53;;;4.57;;
7201;SDS011;3642;52.506;13.304;2022-07-22T04:30:23;6.55;;;4.80;;
7201;SDS011;3642;52.506;13.304;2022-07-22T04:32:53;5.72;;;4.80;;
7201;SDS011;3642;52.506;13.304;2022-07-22T04:35:21;7.72;;;4.82;;
7201;SDS011;3642;52.506;13.304;2022-07-22T04:37:49;6.68;;;4.97;;
7201;SDS011;3642;52.506;13.304;2022-07-22T04:40:19;6.13;;;5.15;;
7201;SDS011;3642;52.506;13.304;2022-07-22T04:42:47;4.80;;;4.30;;
7201;SDS011;3642;52.506;13.304;2022-07-22T04:45:15;8.35;;;4.80;;
7201;SDS011;3642;52.506;13.304;2022-07-22T04:47:43;6.57;;;4.70;;
7201;SDS011;3642;52.506;13.304;2022-07-22T04:50:13;5.07;;;4.57;;
7201;SDS011;3642;52.506;13.304;2022-07-22T04:52:41;6.18;;;4.82;;
7201;SDS011;3642;52.506;13.304;2022-07-22T04:55:15;7.20;;;4.93;;
7201;SDS011;3642;52.506;13.304;2022-07-22T04:57:43;6.75;;;5.10;;
7201;SDS011;3642;52.506;13.304;2022-07-22T05:00:11;5.60;;;4.93;;
7201;SDS011;3642;52.506;13.304;2022-07-22T05:02:42;5.97;;;5.03;;
7201;SDS011;3642;52.506;13.304;2022-07-22T05:05:10;6.55;;;5.18;;
7201;SDS011;3642;52.506;13.304;2022-07-22T05:07:40;6.72;;;5.32;;
7201;SDS011;3642;52.506;13.304;2022-07-22T05:10:08;5.22;;;4.50;;
7201;SDS011;3642;52.506;13.304;2022-07-22T05:12:39;6.75;;;5.03;;
7201;SDS011;3642;52.506;13.304;2022-07-22T05:15:07;6.53;;;4.82;;
7201;SDS011;3642;52.506;13.304;2022-07-22T05:17:36;6.32;;;4.90;;
7201;SDS011;3642;52.506;13.304;2022-07-22T05:20:04;6.22;;;5.43;;
7201;SDS011;3642;52.506;13.304;2022-07-22T05:22:33;6.53;;;5.30;;
7201;SDS011;3642;52.506;13.304;2022-07-22T05:25:05;5.47;;;4.95;;
7201;SDS011;3642;52.506;13.304;2022-07-22T05:27:33;6.13;;;4.90;;
7201;SDS011;3642;52.506;13.304;2022-07-22T05:30:02;6.75;;;5.00;;
7201;SDS011;3642;52.506;13.304;2022-07-22T05:32:30;6.47;;;5.05;;
7201;SDS011;3642;52.506;13.304;2022-07-22T05:34:58;6.10;;;5.50;;
7201;SDS011;3642;52.506;13.304;2022-07-22T05:37:26;5.68;;;5.10;;
7201;SDS011;3642;52.506;13.304;2022-07-22T05:39:55;6.65;;;4.40;;
7201;SDS011;3642;52.506;13.304;2022-07-22T05:42:25;6.32;;;5.40;;
7201;SDS011;3642;52.506;13.304;2022-07-22T05:44:55;6.55;;;5.50;;
7201;SDS011;3642;52.506;13.304;2022-07-22T05:47:23;6.32;;;5.35;;
7201;SDS011;3642;52.506;13.304;2022-07-22T05:49:51;7.07;;;5.40;;
7201;SDS011;3642;52.506;13.304;2022-07-22T05:52:20;8.43;;;5.35;;
7201;SDS011;3642;52.506;13.304;2022-07-22T05:54:48;6.03;;;4.80;;
7201;SDS011;3642;52.506;13.304;2022-07-22T05:57:16;5.80;;;5.05;;
7201;SDS011;3642;52.506;13.304;2022-07-22T05:59:46;6.65;;;5.82;;
7201;SDS011;3642;52.506;13.304;2022-07-22T06:02:14;6.60;;;5.22;;
7201;SDS011;3642;52.506;13.304;2022-07-22T06:04:42;7.32;;;5.80;;
7201;SDS011;3642;52.506;13.304;2022-07-22T06:07:11;8.02;;;6.72;;
7201;SDS011;3642;52.506;13.304;2022-07-22T06:09:39;7.50;;;5.93;;
7201;SDS011;3642;52.506;13.304;2022-07-22T06:12:07;6.38;;;5.70;;
7201;SDS011;3642;52.506;13.304;2022-07-22T06:14:36;7.05;;;6.35;;
7201;SDS011;3642;52.506;13.304;2022-07-22T06:17:06;6.45;;;5.43;;
7201;SDS011;3642;52.506;13.304;2022-07-22T06:19:34;7.22;;;5.95;;
7201;SDS011;3642;52.506;13.304;2022-07-22T06:22:02;7.63;;;5.93;;
7201;SDS011;3642;52.506;13.304;2022-07-22T06:24:31;7.05;;;6.22;;
7201;SDS011;3642;52.506;13.304;2022-07-22T06:26:59;7.03;;;6.28;;
7201;SDS011;3642;52.506;13.304;2022-07-22T06:29:27;6.50;;;5.20;;
7201;SDS011;3642;52.506;13.304;2022-07-22T06:31:55;8.18;;;6.00;;
7201;SDS011;3642;52.506;13.304;2022-07-22T06:34:25;7.35;;;5.72;;
7201;SDS011;3642;52.506;13.304;2022-07-22T06:36:53;7.35;;;5.70;;
7201;SDS011;3642;52.506;13.304;2022-07-22T06:39:22;6.82;;;5.68;;
7201;SDS011;3642;52.506;13.304;2022-07-22T06:41:50;8.00;;;5.68;;
7201;SDS011;3642;52.506;13.304;2022-07-22T06:44:19;6.05;;;5.00;;
7201;SDS011;3642;52.506;13.304;2022-07-22T06:46:47;5.88;;;5.28;;
7201;SDS011;3642;52.506;13.304;2022-07-22T06:49:15;7.70;;;5.60;;
7201;SDS011;3642;52.506;13.304;2022-07-22T06:51:45;7.93;;;5.78;;
7201;SDS011;3642;52.506;13.304;2022-07-22T06:54:13;7.68;;;5.68;;
7201;SDS011;3642;52.506;13.304;2022-07-22T06:56:42;7.00;;;5.45;;
7201;SDS011;3642;52.506;13.304;2022-07-22T06:59:10;5.85;;;5.25;;
7201;SDS011;3642;52.506;13.304;2022-07-22T07:01:40;7.07;;;6.38;;
7201;SDS011;3642;52.506;13.304;2022-07-22T07:04:11;6.13;;;5.25;;
7201;SDS011;3642;52.506;13.304;2022-07-22T07:06:39;6.45;;;5.85;;
7201;SDS011;3642;52.506;13.304;2022-07-22T07:09:09;6.82;;;5.70;;
7201;SDS011;3642;52.506;13.304;2022-07-22T07:11:37;6.93;;;5.72;;
7201;SDS011;3642;52.506;13.304;2022-07-22T07:14:08;7.30;;;5.57;;
7201;SDS011;3642;52.506;13.304;2022-07-22T07:16:36;6.20;;;5.53;;
7201;SDS011;3642;52.506;13.304;2022-07-22T07:19:05;5.88;;;5.28;;
7201;SDS011;3642;52.506;13.304;2022-07-22T07:21:33;6.65;;;5.13;;
7201;SDS011;3642;52.506;13.304;2022-07-22T07:24:01;5.65;;;5.15;;
7201;SDS011;3642;52.506;13.304;2022-07-22T07:26:31;6.57;;;5.80;;
7201;SDS011;3642;52.506;13.304;2022-07-22T07:28:59;6.70;;;5.82;;
7201;SDS011;3642;52.506;13.304;2022-07-22T07:31:27;7.15;;;5.07;;
7201;SDS011;3642;52.506;13.304;2022-07-22T07:33:57;5.50;;;5.00;;
7201;SDS011;3642;52.506;13.304;2022-07-22T07:36:25;6.28;;;5.13;;
7201;SDS011;3642;52.506;13.304;2022-07-22T07:38:54;5.30;;;4.80;;
7201;SDS011;3642;52.506;13.304;2022-07-22T07:41:23;5.45;;;4.88;;
7201;SDS011;3642;52.506;13.304;2022-07-22T07:43:52;5.10;;;4.60;;
7201;SDS011;3642;52.506;13.304;2022-07-22T07:46:20;5.40;;;4.50;;
7201;SDS011;3642;52.506;13.304;2022-07-22T07:48:48;4.93;;;4.53;;
7201;SDS011;3642;52.506;13.304;2022-07-22T07:51:17;5.00;;;4.50;;
7201;SDS011;3642;52.506;13.304;2022-07-22T07:53:45;5.25;;;4.43;;
7201;SDS011;3642;52.506;13.304;2022-07-22T07:56:13;4.88;;;4.40;;
7201;SDS011;3642;52.506;13.304;2022-07-22T07:58:41;5.45;;;4.82;;
7201;SDS011;3642;52.506;13.304;2022-07-22T08:01:31;5.50;;;4.55;;
7201;SDS011;3642;52.506;13.304;2022-07-22T08:04:19;4.22;;;3.83;;
7201;SDS011;3642;52.506;13.304;2022-07-22T08:07:01;5.10;;;4.05;;
7201;SDS011;3642;52.506;13.304;2022-07-22T08:09:30;5.15;;;4.32;;
7201;SDS011;3642;52.506;13.304;2022-07-22T08:11:59;5.20;;;4.07;;
7201;SDS011;3642;52.506;13.304;2022-07-22T08:14:27;3.85;;;3.50;;
7201;SDS011;3642;52.506;13.304;2022-07-22T08:16:58;4.68;;;4.18;;
7201;SDS011;3642;52.506;13.304;2022-07-22T08:19:27;5.45;;;4.13;;
7201;SDS011;3642;52.506;13.304;2022-07-22T08:21:55;4.05;;;3.35;;
7201;SDS011;3642;52.506;13.304;2022-07-22T08:24:24;4.30;;;3.90;;
7201;SDS011;3642;52.506;13.304;2022-07-22T08:26:53;4.28;;;3.78;;
7201;SDS011;3642;52.506;13.304;2022-07-22T08:29:21;4.00;;;3.60;;
7201;SDS011;3642;52.506;13.304;2022-07-22T08:31:50;4.38;;;3.97;;
7201;SDS011;3642;52.506;13.304;2022-07-22T08:34:19;4.22;;;3.83;;
7201;SDS011;3642;52.506;13.304;2022-07-22T08:36:48;4.38;;;3.78;;
7201;SDS011;3642;52.506;13.304;2022-07-22T08:39:16;5.05;;;3.97;;
7201;SDS011;3642;52.506;13.304;2022-07-22T08:41:48;4.72;;;4.00;;
7201;SDS011;3642;52.506;13.304;2022-07-22T08:44:17;4.55;;;4.13;;
7201;SDS011;3642;52.506;13.304;2022-07-22T08:46:46;4.63;;;3.90;;
7201;SDS011;3642;52.506;13.304;2022-07-22T08:49:14;4.88;;;4.20;;
7201;SDS011;3642;52.506;13.304;2022-07-22T08:51:45;5.78;;;3.67;;
7201;SDS011;3642;52.506;13.304;2022-07-22T08:54:13;7.20;;;3.97;;
7201;SDS011;3642;52.506;13.304;2022-07-22T08:56:43;6.63;;;3.80;;
7201;SDS011;3642;52.506;13.304;2022-07-22T08:59:13;4.13;;;3.72;;
7201;SDS011;3642;52.506;13.304;2022-07-22T09:04:32;3.97;;;3.58;;
7201;SDS011;3642;52.506;13.304;2022-07-22T09:07:24;9.30;;;3.92;;
7201;SDS011;3642;52.506;13.304;2022-07-22T09:09:53;3.65;;;3.35;;
7201;SDS011;3642;52.506;13.304;2022-07-22T09:12:22;3.33;;;3.03;;
7201;SDS011;3642;52.506;13.304;2022-07-22T09:14:51;3.47;;;3.03;;
7201;SDS011;3642;52.506;13.304;2022-07-22T09:17:25;3.10;;;2.80;;
7201;SDS011;3642;52.506;13.304;2022-07-22T09:19:55;3.28;;;2.97;;
7201;SDS011;3642;52.506;13.304;2022-07-22T09:22:32;3.70;;;3.40;;
7201;SDS011;3642;52.506;13.304;2022-07-22T09:25:16;3.72;;;3.22;;
7201;SDS011;3642;52.506;13.304;2022-07-22T09:27:46;4.30;;;2.60;;
7201;SDS011;3642;52.506;13.304;2022-07-22T09:30:15;2.72;;;2.53;;
7201;SDS011;3642;52.506;13.304;2022-07-22T09:32:47;2.35;;;2.15;;
7201;SDS011;3642;52.506;13.304;2022-07-22T09:35:17;2.83;;;2.63;;
7201;SDS011;3642;52.506;13.304;2022-07-22T09:37:48;2.85;;;2.50;;
7201;SDS011;3642;52.506;13.304;2022-07-22T09:40:19;2.78;;;2.30;;
7201;SDS011;3642;52.506;13.304;2022-07-22T09:42:50;2.70;;;2.50;;
7201;SDS011;3642;52.506;13.304;2022-07-22T09:45:21;3.88;;;2.78;;
7201;SDS011;3642;52.506;13.304;2022-07-22T09:47:51;2.85;;;2.63;;
7201;SDS011;3642;52.506;13.304;2022-07-22T09:50:22;2.65;;;2.45;;
7201;SDS011;3642;52.506;13.304;2022-07-22T09:52:53;2.67;;;2.25;;
7201;SDS011;3642;52.506;13.304;2022-07-22T09:55:29;2.78;;;2.47;;
7201;SDS011;3642;52.506;13.304;2022-07-22T09:58:00;2.65;;;2.33;;
7201;SDS011;3642;52.506;13.304;2022-07-22T10:00:28;2.40;;;2.20;;
7201;SDS011;3642;52.506;13.304;2022-07-22T10:02:57;2.30;;;2.08;;
7201;SDS011;3642;52.506;13.304;2022-07-22T10:05:28;2.60;;;2.40;;
7201;SDS011;3642;52.506;13.304;2022-07-22T10:08:00;2.40;;;2.20;;
7201;SDS011;3642;52.506;13.304;2022-07-22T10:10:30;2.28;;;2.08;;
7201;SDS011;3642;52.506;13.304;2022-07-22T10:12:59;2.70;;;2.50;;
7201;SDS011;3642;52.506;13.304;2022-07-22T10:15:29;2.72;;;2.53;;
7201;SDS011;3642;52.506;13.304;2022-07-22T10:18:01;3.80;;;3.03;;
7201;SDS011;3642;52.506;13.304;2022-07-22T10:20:33;3.72;;;3.30;;
7201;SDS011;3642;52.506;13.304;2022-07-22T10:23:04;3.50;;;3.20;;
7201;SDS011;3642;52.506;13.304;2022-07-22T10:25:49;3.20;;;2.90;;
7201;SDS011;3642;52.506;13.304;2022-07-22T10:28:24;3.03;;;2.72;;
7201;SDS011;3642;52.506;13.304;2022-07-22T10:30:53;3.30;;;3.00;;
7201;SDS011;3642;52.506;13.304;2022-07-22T10:33:35;3.50;;;3.03;;
7201;SDS011;3642;52.506;13.304;2022-07-22T10:36:03;3.95;;;3.33;;
7201;SDS011;3642;52.506;13.304;2022-07-22T10:38:33;3.10;;;2.88;;
7201;SDS011;3642;52.506;13.304;2022-07-22T10:41:02;2.55;;;2.40;;
7201;SDS011;3642;52.506;13.304;2022-07-22T10:43:45;3.42;;;2.65;;
7201;SDS011;3642;52.506;13.304;2022-07-22T10:46:14;3.13;;;2.83;;
7201;SDS011;3642;52.506;13.304;2022-07-22T10:48:45;3.25;;;2.95;;
7201;SDS011;3642;52.506;13.304;2022-07-22T10:51:15;5.80;;;4.30;;
7201;SDS011;3642;52.506;13.304;2022-07-22T10:53:46;4.68;;;3.90;;
7201;SDS011;3642;52.506;13.304;2022-07-22T10:56:22;4.15;;;2.95;;
7201;SDS011;3642;52.506;13.304;2022-07-22T10:58:56;3.65;;;3.35;;
7201;SDS011;3642;52.506;13.304;2022-07-22T11:01:29;3.85;;;3.42;;
7201;SDS011;3642;52.506;13.304;2022-07-22T11:04:08;4.10;;;3.45;;
7201;SDS011;3642;52.506;13.304;2022-07-22T11:06:44;5.47;;;3.47;;
7201;SDS011;3642;52.506;13.304;2022-07-22T11:09:15;3.40;;;3.10;;
7201;SDS011;3642;52.506;13.304;2022-07-22T11:11:45;6.07;;;3.47;;
7201;SDS011;3642;52.506;13.304;2022-07-22T11:14:20;4.28;;;3.50;;
7201;SDS011;3642;52.506;13.304;2022-07-22T11:16:53;4.88;;;4.38;;
7201;SDS011;3642;52.506;13.304;2022-07-22T11:19:23;3.50;;;3.20;;
7201;SDS011;3642;52.506;13.304;2022-07-22T11:21:53;3.35;;;3.05;;
7201;SDS011;3642;52.506;13.304;2022-07-22T11:24:24;4.05;;;3.63;;
7201;SDS011;3642;52.506;13.304;2022-07-22T11:26:53;6.13;;;3.88;;
7201;SDS011;3642;52.506;13.304;2022-07-22T11:29:30;3.90;;;3.40;;
7201;SDS011;3642;52.506;13.304;2022-07-22T11:32:01;3.35;;;3.05;;
7201;SDS011;3642;52.506;13.304;2022-07-22T11:34:32;3.75;;;3.13;;
7201;SDS011;3642;52.506;13.304;2022-07-22T11:37:03;3.22;;;2.95;;
7201;SDS011;3642;52.506;13.304;2022-07-22T11:39:33;3.63;;;2.90;;
7201;SDS011;3642;52.506;13.304;2022-07-22T11:42:01;3.00;;;2.70;;
7201;SDS011;3642;52.506;13.304;2022-07-22T11:44:31;3.35;;;3.05;;
7201;SDS011;3642;52.506;13.304;2022-07-22T11:47:00;3.67;;;3.03;;
7201;SDS011;3642;52.506;13.304;2022-07-22T11:49:29;6.65;;;3.90;;
7201;SDS011;3642;52.506;13.304;2022-07-22T11:51:59;3.42;;;3.13;;
7201;SDS011;3642;52.506;13.304;2022-07-22T11:54:28;3.55;;;3.05;;
7201;SDS011;3642;52.506;13.304;2022-07-22T11:56:58;3.33;;;2.67;;
7201;SDS011;3642;52.506;13.304;2022-07-22T11:59:26;3.17;;;2.85;;
7201;SDS011;3642;52.506;13.304;2022-07-22T12:01:54;3.10;;;2.90;;
7201;SDS011;3642;52.506;13.304;2022-07-22T12:04:23;4.13;;;3.72;;
7201;SDS011;3642;52.506;13.304;2022-07-22T12:06:53;4.30;;;3.90;;
7201;SDS011;3642;52.506;13.304;2022-07-22T12:09:22;3.03;;;2.75;;
7201;SDS011;3642;52.506;13.304;2022-07-22T12:11:52;2.80;;;2.60;;
7201;SDS011;3642;52.506;13.304;2022-07-22T12:14:24;3.20;;;2.90;;
7201;SDS011;3642;52.506;13.304;2022-07-22T12:16:54;2.90;;;2.70;;
7201;SDS011;3642;52.506;13.304;2022-07-22T12:19:24;2.72;;;2.53;;
7201;SDS011;3642;52.506;13.304;2022-07-22T12:21:57;2.30;;;2.10;;
7201;SDS011;3642;52.506;13.304;2022-07-22T12:24:28;2.58;;;2.38;;
7201;SDS011;3642;52.506;13.304;2022-07-22T12:26:58;2.17;;;1.98;;
7201;SDS011;3642;52.506;13.304;2022-07-22T12:29:30;2.15;;;1.95;;
7201;SDS011;3642;52.506;13.304;2022-07-22T12:32:09;2.28;;;2.08;;
7201;SDS011;3642;52.506;13.304;2022-07-22T12:34:42;2.25;;;2.15;;
7201;SDS011;3642;52.506;13.304;2022-07-22T12:37:13;2.28;;;2.08;;
7201;SDS011;3642;52.506;13.304;2022-07-22T12:39:53;2.53;;;2.25;;
7201;SDS011;3642;52.506;13.304;2022-07-22T12:42:22;2.58;;;2.38;;
7201;SDS011;3642;52.506;13.304;2022-07-22T12:45:00;2.30;;;2.10;;
7201;SDS011;3642;52.506;13.304;2022-07-22T12:47:38;2.28;;;2.08;;
7201;SDS011;3642;52.506;13.304;2022-07-22T12:50:17;2.03;;;1.92;;
7201;SDS011;3642;52.506;13.304;2022-07-22T12:52:46;2.15;;;2.05;;
7201;SDS011;3642;52.506;13.304;2022-07-22T12:55:37;2.10;;;1.90;;
7201;SDS011;3642;52.506;13.304;2022-07-22T12:58:06;1.90;;;1.80;;
7201;SDS011;3642;52.506;13.304;2022-07-22T13:00:38;2.58;;;1.90;;
7201;SDS011;3642;52.506;13.304;2022-07-22T13:03:08;1.90;;;1.80;;
7201;SDS011;3642;52.506;13.304;2022-07-22T13:05:37;2.00;;;1.80;;
7201;SDS011;3642;52.506;13.304;2022-07-22T13:08:07;1.80;;;1.70;;
7201;SDS011;3642;52.506;13.304;2022-07-22T13:10:35;1.85;;;1.75;;
7201;SDS011;3642;52.506;13.304;2022-07-22T13:13:05;2.03;;;1.60;;
7201;SDS011;3642;52.506;13.304;2022-07-22T13:15:34;2.10;;;2.00;;
7201;SDS011;3642;52.506;13.304;2022-07-22T13:18:05;1.90;;;1.80;;
7201;SDS011;3642;52.506;13.304;2022-07-22T13:20:34;2.15;;;1.83;;
7201;SDS011;3642;52.506;13.304;2022-07-22T13:23:02;1.88;;;1.77;;
7201;SDS011;3642;52.506;13.304;2022-07-22T13:25:32;1.52;;;1.42;;
7201;SDS011;3642;52.506;13.304;2022-07-22T13:28:01;2.00;;;1.80;;
7201;SDS011;3642;52.506;13.304;2022-07-22T13:30:30;1.92;;;1.83;;
7201;SDS011;3642;52.506;13.304;2022-07-22T13:32:59;2.55;;;1.70;;
7201;SDS011;3642;52.506;13.304;2022-07-22T13:35:28;1.73;;;1.63;;
7201;SDS011;3642;52.506;13.304;2022-07-22T13:37:57;2.30;;;1.60;;
7201;SDS011;3642;52.506;13.304;2022-07-22T13:40:26;1.80;;;1.70;;
7201;SDS011;3642;52.506;13.304;2022-07-22T13:42:54;1.60;;;1.50;;
7201;SDS011;3642;52.506;13.304;2022-07-22T13:45:22;2.95;;;1.65;;
7201;SDS011;3642;52.506;13.304;2022-07-22T13:47:50;1.75;;;1.65;;
7201;SDS011;3642;52.506;13.304;2022-07-22T13:50:19;1.80;;;1.70;;
7201;SDS011;3642;52.506;13.304;2022-07-22T13:52:49;1.80;;;1.70;;
7201;SDS011;3642;52.506;13.304;2022-07-22T13:55:17;2.08;;;1.55;;
7201;SDS011;3642;52.506;13.304;2022-07-22T13:57:45;3.25;;;2.50;;
7201;SDS011;3642;52.506;13.304;2022-07-22T14:00:14;2.47;;;1.50;;
7201;SDS011;3642;52.506;13.304;2022-07-22T14:02:43;1.77;;;1.67;;
7201;SDS011;3642;52.506;13.304;2022-07-22T14:05:11;1.65;;;1.50;;
7201;SDS011;3642;52.506;13.304;2022-07-22T14:07:41;1.40;;;1.30;;
7201;SDS011;3642;52.506;13.304;2022-07-22T14:10:11;3.47;;;1.70;;
7201;SDS011;3642;52.506;13.304;2022-07-22T14:12:41;1.80;;;1.70;;
7201;SDS011;3642;52.506;13.304;2022-07-22T14:15:09;2.22;;;1.48;;
7201;SDS011;3642;52.506;13.304;2022-07-22T14:17:39;1.70;;;1.60;;
7201;SDS011;3642;52.506;13.304;2022-07-22T14:20:08;1.50;;;1.40;;
7201;SDS011;3642;52.506;13.304;2022-07-22T14:22:37;2.83;;;1.70;;
7201;SDS011;3642;52.506;13.304;2022-07-22T14:25:06;1.95;;;1.65;;
7201;SDS011;3642;52.506;13.304;2022-07-22T14:27:36;1.75;;;1.65;;
7201;SDS011;3642;52.506;13.304;2022-07-22T14:30:04;1.55;;;1.42;;
7201;SDS011;3642;52.506;13.304;2022-07-22T14:32:34;1.70;;;1.60;;
7201;SDS011;3642;52.506;13.304;2022-07-22T14:35:03;1.50;;;1.40;;
7201;SDS011;3642;52.506;13.304;2022-07-22T14:37:33;2.85;;;1.65;;
7201;SDS011;3642;52.506;13.304;2022-07-22T14:40:01;3.08;;;1.40;;
7201;SDS011;3642;52.506;13.304;2022-07-22T14:42:31;1.88;;;1.70;;
7201;SDS011;3642;52.506;13.304;2022-07-22T14:45:05;1.58;;;1.48;;
7201;SDS011;3642;52.506;13.304;2022-07-22T14:47:35;1.50;;;1.40;;
7201;SDS011;3642;52.506;13.304;2022-07-22T14:50:04;1.60;;;1.50;;
7201;SDS011;3642;52.506;13.304;2022-07-22T14:52:33;1.60;;;1.50;;
7201;SDS011;3642;52.506;13.304;2022-07-22T14:55:02;1.50;;;1.40;;
7201;SDS011;3642;52.506;13.304;2022-07-22T14:57:30;2.00;;;1.60;;
7201;SDS011;3642;52.506;13.304;2022-07-22T14:59:59;2.40;;;1.50;;
7201;SDS011;3642;52.506;13.304;2022-07-22T15:02:29;1.63;;;1.48;;
7201;SDS011;3642;52.506;13.304;2022-07-22T15:04:58;1.52;;;1.42;;
7201;SDS011;3642;52.506;13.304;2022-07-22T15:07:26;2.00;;;1.80;;
7201;SDS011;3642;52.506;13.304;2022-07-22T15:09:54;1.67;;;1.58;;
7201;SDS011;3642;52.506;13.304;2022-07-22T15:12:22;2.80;;;1.70;;
7201;SDS011;3642;52.506;13.304;2022-07-22T15:15:11;1.95;;;1.70;;
7201;SDS011;3642;52.506;13.304;2022-07-22T15:17:40;1.67;;;1.58;;